createdAt,value
2022-08-16T00:02:33.059Z,96259.91
2022-08-16T00:05:00.386Z,96257.78
2022-08-16T00:07:29.246Z,96265.47
2022-08-16T00:10:00.056Z,96268.19
2022-08-16T00:12:30.682Z,96280.38
2022-08-16T00:15:02.137Z,96270.41
2022-08-16T00:17:28.788Z,96274.66
2022-08-16T00:20:15.942Z,96278.09
2022-08-16T00:22:48.276Z,96274.09
2022-08-16T00:25:20.077Z,96276.75
2022-08-16T00:28:07.160Z,96277.31
2022-08-16T00:30:35.052Z,96273.06
2022-08-16T00:33:02.785Z,96275.78
2022-08-16T00:35:34.981Z,96276.88
2022-08-16T00:38:40.148Z,96283.34
2022-08-16T00:40:55.295Z,96279.59
2022-08-16T00:43:40.876Z,96277.63
2022-08-16T00:46:33.818Z,96277.13
2022-08-16T00:49:06.827Z,96276.31
2022-08-16T00:51:44.298Z,96275.34
2022-08-16T00:54:12.239Z,96275.91
2022-08-16T00:56:57.780Z,96274.88
2022-08-16T00:59:28.982Z,96272.22
2022-08-16T01:01:56.081Z,96267.78
2022-08-16T01:04:30.633Z,96272.47
2022-08-16T01:07:01.324Z,96273.03
2022-08-16T01:09:42.945Z,96274.66
2022-08-16T01:12:11.048Z,96270.69
2022-08-16T01:14:56.678Z,96287.72
2022-08-16T01:17:24.551Z,96276.28
2022-08-16T01:19:58.654Z,96285.00
2022-08-16T01:22:48.559Z,96274.66
2022-08-16T01:25:22.523Z,96280.72
2022-08-16T01:28:07.116Z,96273.34
2022-08-16T01:30:40.173Z,96267.78
2022-08-16T01:33:19.474Z,96263.91
2022-08-16T01:35:54.170Z,96266.56
2022-08-16T01:38:39.156Z,96272.41
2022-08-16T01:41:10.081Z,96272.41
2022-08-16T01:43:39.220Z,96272.59
2022-08-16T01:46:37.700Z,96268.44
2022-08-16T01:49:14.197Z,96272.72
2022-08-16T01:51:43.977Z,96274.81
2022-08-16T01:54:13.381Z,96281.94
2022-08-16T01:56:52.018Z,96279.84
2022-08-16T01:59:21.766Z,96284.09
2022-08-16T02:01:59.459Z,96283.28
2022-08-16T02:04:49.166Z,96280.94
2022-08-16T02:07:18.624Z,96260.41
2022-08-16T02:09:56.928Z,96265.94
2022-08-16T02:12:49.709Z,96274.94
2022-08-16T02:15:14.201Z,96271.28
2022-08-16T02:17:41.571Z,96265.69
2022-08-16T02:20:12.653Z,96250.78
2022-08-16T02:22:39.317Z,96257.53
2022-08-16T02:25:10.635Z,96258.59
2022-08-16T02:27:39.968Z,96252.28
2022-08-16T02:30:37.198Z,96255.97
2022-08-16T02:33:03.127Z,96243.03
2022-08-16T02:35:30.926Z,96241.75
2022-08-16T02:38:01.591Z,96248.63
2022-08-16T02:40:35.743Z,96248.69
2022-08-16T02:43:02.705Z,96250.22
2022-08-16T02:45:29.642Z,96244.16
2022-08-16T02:48:01.808Z,96245.91
2022-08-16T02:51:03.196Z,96253.22
2022-08-16T02:53:31.028Z,96252.28
2022-08-16T02:55:59.191Z,96264.16
2022-08-16T02:58:27.708Z,96253.38
2022-08-16T03:00:57.150Z,96249.44
2022-08-16T03:03:26.563Z,96254.72
2022-08-16T03:05:53.852Z,96256.78
2022-08-16T03:08:52.186Z,96258.13
2022-08-16T03:11:17.834Z,96251.50
2022-08-16T03:13:56.585Z,96254.69
2022-08-16T03:16:37.705Z,96251.75
2022-08-16T03:19:08.336Z,96259.41
2022-08-16T03:21:37.678Z,96250.75
2022-08-16T03:24:29.425Z,96257.06
2022-08-16T03:26:58.757Z,96261.25
2022-08-16T03:29:30.256Z,96250.44
2022-08-16T03:32:01.205Z,96252.59
2022-08-16T03:34:30.103Z,96247.13
2022-08-16T03:36:57.922Z,96262.41
2022-08-16T03:39:24.705Z,96261.31
2022-08-16T03:42:00.080Z,96257.63
2022-08-16T03:44:44.404Z,96266.09
2022-08-16T03:47:18.916Z,96258.50
2022-08-16T03:49:51.574Z,96270.41
2022-08-16T03:52:23.911Z,96268.03
2022-08-16T03:54:59.439Z,96271.81
2022-08-16T03:57:32.111Z,96273.38
2022-08-16T04:00:20.476Z,96274.19
2022-08-16T04:03:07.660Z,96273.63
2022-08-16T04:05:47.231Z,96272.06
2022-08-16T04:08:22.852Z,96262.09
2022-08-16T04:10:55.277Z,96263.63
2022-08-16T04:14:01.682Z,96266.25
2022-08-16T04:16:27.590Z,96262.59
2022-08-16T04:19:04.785Z,96262.81
2022-08-16T04:21:34.541Z,96271.72
2022-08-16T04:24:02.823Z,96260.09
2022-08-16T04:26:30.905Z,96273.22
2022-08-16T04:29:14.960Z,96270.34
2022-08-16T04:31:56.628Z,96282.34
2022-08-16T04:34:30.612Z,96287.59
2022-08-16T04:37:01.453Z,96282.41
2022-08-16T04:39:44.905Z,96285.66
2022-08-16T04:42:18.869Z,96285.50
2022-08-16T04:44:56.055Z,96278.78
2022-08-16T04:47:31.408Z,96281.75
2022-08-16T04:49:59.958Z,96291.03
2022-08-16T04:52:34.438Z,96287.81
2022-08-16T04:55:09.822Z,96292.41
2022-08-16T04:57:39.314Z,96299.50
2022-08-16T05:00:30.522Z,96294.56
2022-08-16T05:03:10.253Z,96294.72
2022-08-16T05:05:59.587Z,96300.53
2022-08-16T05:08:31.005Z,96298.91
2022-08-16T05:11:12.369Z,96292.06
2022-08-16T05:13:43.042Z,96279.41
2022-08-16T05:16:21.683Z,96280.78
2022-08-16T05:18:56.871Z,96284.16
2022-08-16T05:21:28.308Z,96284.78
2022-08-16T05:24:02.837Z,96294.78
2022-08-16T05:26:33.236Z,96285.34
2022-08-16T05:29:03.533Z,96300.84
2022-08-16T05:31:31.529Z,96299.44
2022-08-16T05:34:03.186Z,96299.16
2022-08-16T05:36:33.788Z,96294.25
2022-08-16T05:39:03.845Z,96304.78
2022-08-16T05:41:30.792Z,96289.31
2022-08-16T05:44:01.235Z,96302.88
2022-08-16T05:46:43.580Z,96293.41
2022-08-16T05:49:22.256Z,96289.03
2022-08-16T05:51:52.938Z,96301.75
2022-08-16T05:54:20.297Z,96298.88
2022-08-16T05:56:57.336Z,96289.75
2022-08-16T05:59:26.939Z,96296.09
2022-08-16T06:01:55.049Z,96295.34
2022-08-16T06:04:36.264Z,96288.31
2022-08-16T06:07:08.904Z,96282.47
2022-08-16T06:09:43.523Z,96295.03
2022-08-16T06:12:27.022Z,96301.38
2022-08-16T06:14:59.140Z,96301.00
2022-08-16T06:17:41.447Z,96301.78
2022-08-16T06:20:34.660Z,96300.31
2022-08-16T06:23:11.790Z,96300.91
2022-08-16T06:25:57.277Z,96299.72
2022-08-16T06:31:11.714Z,96296.66
2022-08-16T06:33:41.933Z,96317.34
2022-08-16T06:36:14.259Z,96320.84
2022-08-16T06:38:55.419Z,96303.31
2022-08-16T06:41:39.637Z,96297.72
2022-08-16T06:44:21.409Z,96309.34
2022-08-16T06:46:54.792Z,96305.09
2022-08-16T06:49:22.496Z,96312.19
2022-08-16T06:51:49.489Z,96312.94
2022-08-16T06:54:22.709Z,96310.91
2022-08-16T06:56:52.431Z,96319.53
2022-08-16T06:59:25.833Z,96310.69
2022-08-16T07:01:58.380Z,96305.56
2022-08-16T07:04:32.026Z,96312.72
2022-08-16T07:07:05.971Z,96315.47
2022-08-16T07:09:33.008Z,96316.72
2022-08-16T07:12:03.522Z,96312.94
2022-08-16T07:14:35.134Z,96315.25
2022-08-16T07:17:08.260Z,96308.28
2022-08-16T07:20:29.358Z,96310.31
2022-08-16T07:22:39.866Z,96318.16
2022-08-16T07:25:18.849Z,96315.75
2022-08-16T07:27:49.625Z,96319.50
2022-08-16T07:30:46.122Z,96304.28
2022-08-16T07:33:09.741Z,96303.06
2022-08-16T07:35:44.404Z,96297.59
2022-08-16T07:38:19.800Z,96302.31
2022-08-16T07:40:59.708Z,96308.28
2022-08-16T07:43:29.676Z,96297.06
2022-08-16T07:46:01.285Z,96298.16
2022-08-16T07:48:29.131Z,96306.00
2022-08-16T07:50:59.237Z,96302.31
2022-08-16T07:53:30.443Z,96307.66
2022-08-16T07:56:00.552Z,96305.38
2022-08-16T07:58:36.210Z,96304.63
2022-08-16T08:01:10.741Z,96306.50
2022-08-16T08:03:48.988Z,96308.09
2022-08-16T08:06:22.777Z,96310.91
2022-08-16T08:08:56.994Z,96306.53
2022-08-16T08:11:25.275Z,96303.06
2022-08-16T08:13:57.654Z,96299.63
2022-08-16T08:16:32.646Z,96302.31
2022-08-16T08:19:02.824Z,96310.19
2022-08-16T08:21:58.893Z,96311.16
2022-08-16T08:24:31.536Z,96305.94
2022-08-16T08:27:02.474Z,96315.94
2022-08-16T08:29:37.352Z,96312.97
2022-08-16T08:32:58.122Z,96320.22
2022-08-16T08:35:00.518Z,96321.31
2022-08-16T08:37:41.717Z,96321.22
2022-08-16T08:40:24.677Z,96319.94
2022-08-16T08:42:57.631Z,96310.19
2022-08-16T08:45:46.808Z,96317.84
2022-08-16T08:48:32.914Z,96321.75
2022-08-16T08:51:04.341Z,96318.25
2022-08-16T08:53:33.668Z,96319.59
2022-08-16T08:56:01.474Z,96318.31
2022-08-16T08:58:54.791Z,96315.69
2022-08-16T09:01:42.527Z,96315.44
2022-08-16T09:04:14.722Z,96320.84
2022-08-16T09:06:45.606Z,96326.13
2022-08-16T09:09:16.855Z,96306.56
2022-08-16T09:11:53.524Z,96310.09
2022-08-16T09:14:35.437Z,96312.69
2022-08-16T09:17:11.703Z,96313.81
2022-08-16T09:19:44.327Z,96307.03
2022-08-16T09:22:20.053Z,96317.38
2022-08-16T09:24:52.759Z,96315.69
2022-08-16T09:27:23.557Z,96311.16
2022-08-16T09:30:00.126Z,96311.00
2022-08-16T09:32:31.167Z,96318.47
2022-08-16T09:34:59.849Z,96311.00
2022-08-16T09:37:29.871Z,96306.72
2022-08-16T09:40:00.936Z,96303.91
2022-08-16T09:42:29.710Z,96305.88
2022-08-16T09:45:13.191Z,96298.88
2022-08-16T09:47:56.430Z,96302.59
2022-08-16T09:50:37.075Z,96304.19
2022-08-16T09:53:15.574Z,96310.41
2022-08-16T09:55:48.995Z,96311.88
2022-08-16T09:58:37.869Z,96308.09
2022-08-16T10:01:03.534Z,96307.88
2022-08-16T10:03:31.804Z,96296.66
2022-08-16T10:05:58.573Z,96290.09
2022-08-16T10:08:27.482Z,96291.41
2022-08-16T10:11:13.104Z,96303.47
2022-08-16T10:13:43.764Z,96290.47
2022-08-16T10:19:01.394Z,96291.50
2022-08-16T10:21:29.614Z,96294.28
2022-08-16T10:23:58.708Z,96296.03
2022-08-16T10:27:17.873Z,96300.06
2022-08-16T10:29:11.916Z,96289.13
2022-08-16T10:31:53.493Z,96290.13
2022-08-16T10:34:31.872Z,96292.09
2022-08-16T10:37:00.500Z,96283.75
2022-08-16T10:39:40.929Z,96281.91
2022-08-16T10:42:10.561Z,96276.31
2022-08-16T10:44:40.081Z,96282.94
2022-08-16T10:47:09.588Z,96280.38
2022-08-16T10:49:39.033Z,96293.47
2022-08-16T10:52:17.963Z,96280.59
2022-08-16T10:55:40.768Z,96292.25
2022-08-16T10:57:32.968Z,96286.28
2022-08-16T11:00:00.024Z,96286.47
2022-08-16T11:02:58.566Z,96288.13
2022-08-16T11:05:17.109Z,96278.03
2022-08-16T11:07:52.115Z,96278.84
2022-08-16T11:19:05.498Z,96274.97
2022-08-16T11:21:37.407Z,96274.53
2022-08-16T11:24:05.012Z,96280.13
2022-08-16T11:27:18.431Z,96280.91
2022-08-16T11:29:39.184Z,96275.59
2022-08-16T11:32:07.616Z,96286.31
2022-08-16T11:35:05.792Z,96276.44
2022-08-16T11:37:27.514Z,96274.97
2022-08-16T11:40:02.620Z,96268.53
2022-08-16T11:42:32.177Z,96270.97
2022-08-16T11:45:00.983Z,96264.19
2022-08-16T11:47:28.662Z,96262.72
2022-08-16T11:49:55.186Z,96260.53
2022-08-16T11:52:23.745Z,96267.38
2022-08-16T11:54:57.040Z,96273.31
2022-08-16T11:57:26.585Z,96274.28
2022-08-16T11:59:54.951Z,96271.97
2022-08-16T12:02:32.584Z,96271.88
2022-08-16T12:04:59.796Z,96263.78
2022-08-16T12:07:27.822Z,96259.28
2022-08-16T12:09:55.129Z,96265.19
2022-08-16T12:12:23.567Z,96266.63
2022-08-16T12:14:59.199Z,96270.91
2022-08-16T12:17:31.914Z,96259.94
2022-08-16T12:20:00.522Z,96265.44
2022-08-16T12:22:27.745Z,96267.22
2022-08-16T12:24:54.368Z,96270.66
2022-08-16T12:27:23.907Z,96267.88
2022-08-16T12:29:54.430Z,96259.84
2022-08-16T12:32:38.236Z,96265.34
2022-08-16T12:35:10.110Z,96264.72
2022-08-16T12:37:37.014Z,96257.00
2022-08-16T12:40:21.244Z,96261.19
2022-08-16T12:42:54.761Z,96258.75
2022-08-16T12:45:27.876Z,96259.00
2022-08-16T12:48:34.534Z,96264.09
2022-08-16T12:51:01.103Z,96251.50
2022-08-16T12:53:32.085Z,96246.63
2022-08-16T12:55:59.473Z,96244.78
2022-08-16T12:58:49.500Z,96243.78
2022-08-16T13:01:14.838Z,96245.44
2022-08-16T13:03:42.135Z,96245.41
2022-08-16T13:06:09.880Z,96237.56
2022-08-16T13:08:39.670Z,96232.44
2022-08-16T13:11:07.645Z,96235.31
2022-08-16T13:13:35.322Z,96228.69
2022-08-16T13:16:15.140Z,96229.06
2022-08-16T13:18:42.540Z,96221.63
2022-08-16T13:21:10.571Z,96228.53
2022-08-16T13:23:43.548Z,96232.59
2022-08-16T13:26:10.739Z,96231.63
2022-08-16T13:28:37.263Z,96230.59
2022-08-16T13:31:04.150Z,96221.00
2022-08-16T13:33:36.996Z,96230.16
2022-08-16T13:36:17.097Z,96223.78
2022-08-16T13:38:55.372Z,96216.34
2022-08-16T13:41:23.880Z,96217.66
2022-08-16T13:43:57.904Z,96210.16
2022-08-16T13:46:26.832Z,96212.47
2022-08-16T13:48:53.445Z,96222.25
2022-08-16T13:51:23.699Z,96224.28
2022-08-16T13:53:59.351Z,96221.81
2022-08-16T13:56:38.161Z,96219.78
2022-08-16T13:59:19.326Z,96216.59
2022-08-16T14:01:55.243Z,96217.09
2022-08-16T14:04:27.436Z,96213.44
2022-08-16T14:06:56.374Z,96206.84
2022-08-16T14:09:23.977Z,96207.84
2022-08-16T14:11:53.379Z,96221.22
2022-08-16T14:14:28.354Z,96209.59
2022-08-16T14:16:56.071Z,96216.50
2022-08-16T14:19:22.901Z,96207.69
2022-08-16T14:22:13.350Z,96227.38
2022-08-16T14:24:36.904Z,96216.91
2022-08-16T14:27:04.784Z,96214.44
2022-08-16T14:29:32.260Z,96213.84
2022-08-16T14:32:05.338Z,96216.28
2022-08-16T14:34:32.047Z,96214.69
2022-08-16T14:36:59.595Z,96199.50
2022-08-16T14:39:26.576Z,96209.13
2022-08-16T14:41:53.637Z,96203.59
2022-08-16T14:44:23.080Z,96205.31
2022-08-16T14:46:49.765Z,96205.50
2022-08-16T14:49:19.354Z,96204.22
2022-08-16T14:51:46.361Z,96202.91
2022-08-16T14:54:15.199Z,96204.25
2022-08-16T14:56:54.412Z,96210.63
2022-08-16T14:59:21.935Z,96202.50
2022-08-16T15:01:59.255Z,96198.00
2022-08-16T15:04:32.550Z,96200.66
2022-08-16T15:07:06.770Z,96200.19
2022-08-16T15:09:44.330Z,96196.75
2022-08-16T15:12:26.974Z,96203.41
2022-08-16T15:14:58.130Z,96195.47
2022-08-16T15:17:27.673Z,96197.78
2022-08-16T15:20:01.128Z,96196.91
2022-08-16T15:22:30.693Z,96197.63
2022-08-16T15:25:06.071Z,96197.94
2022-08-16T15:27:36.875Z,96186.81
2022-08-16T15:30:45.733Z,96197.69
2022-08-16T15:33:00.087Z,96198.84
2022-08-16T15:35:26.749Z,96203.50
2022-08-16T15:37:56.634Z,96198.47
2022-08-16T15:40:32.572Z,96200.50
2022-08-16T15:43:02.897Z,96201.50
2022-08-16T15:45:55.605Z,96202.41
2022-08-16T15:48:29.161Z,96204.44
2022-08-16T15:50:59.051Z,96210.16
2022-08-16T15:53:30.679Z,96207.03
2022-08-16T15:55:59.436Z,96205.59
2022-08-16T15:58:34.517Z,96203.59
2022-08-16T16:01:04.388Z,96207.72
2022-08-16T16:03:34.648Z,96204.06
2022-08-16T16:06:02.691Z,96202.25
2022-08-16T16:08:30.982Z,96203.44
2022-08-16T16:11:01.577Z,96206.16
2022-08-16T16:13:30.505Z,96199.22
2022-08-16T16:16:00.442Z,96204.22
2022-08-16T16:18:29.897Z,96203.75
2022-08-16T16:21:00.844Z,96196.84
2022-08-16T16:23:31.233Z,96206.69
2022-08-16T16:25:58.563Z,96201.56
2022-08-16T16:29:07.403Z,96202.41
2022-08-16T16:31:17.955Z,96196.81
2022-08-16T16:33:47.784Z,96191.38
2022-08-16T16:36:19.222Z,96196.16
2022-08-16T16:38:47.543Z,96191.94
2022-08-16T16:41:17.041Z,96195.56
2022-08-16T16:43:44.915Z,96191.84
2022-08-16T16:46:42.630Z,96197.19
2022-08-16T16:49:04.059Z,96203.78
2022-08-16T16:51:31.307Z,96202.00
2022-08-16T16:54:01.103Z,96198.56
2022-08-16T16:56:31.236Z,96202.03
2022-08-16T16:59:06.989Z,96205.09
2022-08-16T17:01:59.584Z,96198.41
2022-08-16T17:04:34.005Z,96202.03
2022-08-16T17:07:01.840Z,96206.03
2022-08-16T17:09:29.483Z,96212.38
2022-08-16T17:11:57.089Z,96207.50
2022-08-16T17:14:33.180Z,96210.91
2022-08-16T17:17:07.069Z,96212.94
2022-08-16T17:19:40.158Z,96211.78
2022-08-16T17:22:14.044Z,96218.50
2022-08-16T17:24:45.380Z,96212.06
2022-08-16T17:27:18.380Z,96211.97
2022-08-16T17:29:58.690Z,96203.75
2022-08-16T17:32:33.537Z,96204.66
2022-08-16T17:35:18.464Z,96206.88
2022-08-16T17:37:51.228Z,96222.22
2022-08-16T17:40:40.875Z,96209.72
2022-08-16T17:43:12.517Z,96217.00
2022-08-16T17:45:40.546Z,96218.78
2022-08-16T17:48:07.652Z,96211.81
2022-08-16T17:50:34.559Z,96214.34
2022-08-16T17:53:03.199Z,96225.69
2022-08-16T17:55:36.673Z,96230.00
2022-08-16T17:58:23.131Z,96221.38
2022-08-16T18:00:52.205Z,96223.19
2022-08-16T18:04:03.197Z,96217.72
2022-08-16T18:06:16.607Z,96217.31
2022-08-16T18:08:43.498Z,96221.56
2022-08-16T18:11:12.760Z,96223.03
2022-08-16T18:13:43.184Z,96223.50
2022-08-16T18:16:11.298Z,96224.50
2022-08-16T18:18:37.908Z,96222.88
2022-08-16T18:21:23.048Z,96230.69
2022-08-16T18:23:49.558Z,96225.31
2022-08-16T18:26:16.111Z,96226.56
2022-08-16T18:28:42.635Z,96227.97
2022-08-16T18:31:09.390Z,96229.50
2022-08-16T18:33:43.290Z,96228.72
2022-08-16T18:36:21.172Z,96228.53
2022-08-16T18:38:49.527Z,96223.91
2022-08-16T18:41:16.429Z,96232.00
2022-08-16T18:44:22.587Z,96241.59
2022-08-16T18:46:29.470Z,96235.28
2022-08-16T18:48:55.866Z,96243.25
2022-08-16T18:51:25.160Z,96245.06
2022-08-16T18:53:52.481Z,96239.75
2022-08-16T18:56:19.032Z,96242.16
2022-08-16T18:58:45.397Z,96250.63
2022-08-16T19:01:11.962Z,96253.84
2022-08-16T19:03:38.352Z,96254.34
2022-08-16T19:06:13.525Z,96256.44
2022-08-16T19:08:41.895Z,96264.97
2022-08-16T19:11:13.960Z,96262.66
2022-08-16T19:13:44.211Z,96261.56
2022-08-16T19:16:12.639Z,96265.41
2022-08-16T19:18:39.577Z,96261.00
2022-08-16T19:21:07.133Z,96267.13
2022-08-16T19:23:37.306Z,96272.63
2022-08-16T19:26:24.552Z,96275.66
2022-08-16T19:28:58.829Z,96267.34
2022-08-16T19:31:30.966Z,96267.34
2022-08-16T19:33:58.099Z,96266.91
2022-08-16T19:36:35.522Z,96274.75
2022-08-16T19:39:08.626Z,96278.84
2022-08-16T19:41:37.942Z,96281.69
2022-08-16T19:44:05.612Z,96284.97
2022-08-16T19:46:32.214Z,96281.38
2022-08-16T19:48:58.694Z,96281.84
2022-08-16T19:51:25.371Z,96290.16
2022-08-16T19:53:51.753Z,96288.38
2022-08-16T19:56:18.724Z,96285.69
2022-08-16T19:59:08.781Z,96285.41
2022-08-16T20:01:32.407Z,96283.31
2022-08-16T20:03:58.849Z,96290.38
2022-08-16T20:06:38.170Z,96287.41
2022-08-16T20:09:05.585Z,96281.72
2022-08-16T20:11:32.420Z,96292.06
2022-08-16T20:13:59.444Z,96290.50
2022-08-16T20:16:26.147Z,96300.66
2022-08-16T20:18:52.548Z,96304.69
2022-08-16T20:21:19.444Z,96305.13
2022-08-16T20:23:46.246Z,96300.44
2022-08-16T20:26:12.859Z,96305.59
2022-08-16T20:28:52.393Z,96315.66
2022-08-16T20:31:24.308Z,96308.84
2022-08-16T20:33:52.647Z,96318.31
2022-08-16T20:36:19.268Z,96320.72
2022-08-16T20:38:47.460Z,96327.84
2022-08-16T20:41:14.535Z,96321.84
2022-08-16T20:43:41.081Z,96318.53
2022-08-16T20:46:07.919Z,96331.22
2022-08-16T20:48:34.587Z,96323.78
2022-08-16T20:51:01.055Z,96338.28
2022-08-16T20:53:27.586Z,96334.56
2022-08-16T20:55:54.545Z,96328.28
2022-08-16T20:58:21.119Z,96332.63
2022-08-16T21:00:47.762Z,96337.84
2022-08-16T21:03:14.412Z,96342.63
2022-08-16T21:05:41.125Z,96337.75
2022-08-16T21:08:32.817Z,96346.59
2022-08-16T21:10:56.359Z,96342.47
2022-08-16T21:13:25.587Z,96353.13
2022-08-16T21:15:52.580Z,96345.88
2022-08-16T21:18:19.083Z,96350.69
2022-08-16T21:20:45.685Z,96342.69
2022-08-16T21:23:12.108Z,96355.13
2022-08-16T21:25:58.300Z,96356.75
2022-08-16T21:28:38.819Z,96347.66
2022-08-16T21:31:09.133Z,96354.38
2022-08-16T21:33:36.025Z,96354.00
2022-08-16T21:36:02.542Z,96351.44
2022-08-16T21:38:30.885Z,96337.88
2022-08-16T21:40:59.765Z,96352.75
2022-08-16T21:43:28.706Z,96346.53
2022-08-16T21:45:55.929Z,96345.75
2022-08-16T21:48:34.129Z,96357.19
2022-08-16T21:51:05.837Z,96355.38
2022-08-16T21:53:32.657Z,96344.88
2022-08-16T21:56:00.635Z,96355.91
2022-08-16T21:58:27.689Z,96352.94
2022-08-16T22:02:41.642Z,96360.59
2022-08-16T22:05:08.408Z,96361.81
2022-08-16T22:07:35.098Z,96350.97
2022-08-16T22:11:04.206Z,96357.91
2022-08-16T22:12:48.763Z,96357.13
2022-08-16T22:15:15.667Z,96352.91
2022-08-16T22:17:43.095Z,96349.84
2022-08-16T22:20:10.870Z,96358.31
2022-08-16T22:22:37.965Z,96360.66
2022-08-16T22:25:04.911Z,96351.22
2022-08-16T22:27:31.465Z,96356.91
2022-08-16T22:29:58.445Z,96349.81
2022-08-16T22:32:26.142Z,96361.91
2022-08-16T22:34:53.691Z,96354.34
2022-08-16T22:37:25.981Z,96363.97
2022-08-16T22:39:52.623Z,96350.00
2022-08-16T22:42:19.677Z,96353.25
2022-08-16T22:44:46.624Z,96365.59
2022-08-16T22:47:14.592Z,96357.72
2022-08-16T22:49:41.205Z,96354.06
2022-08-16T22:52:09.553Z,96359.66
2022-08-16T22:54:48.068Z,96359.38
2022-08-16T22:57:15.500Z,96360.16
2022-08-16T22:59:41.969Z,96366.94
2022-08-16T23:02:09.889Z,96357.94
2022-08-16T23:04:36.757Z,96357.47
2022-08-16T23:07:03.627Z,96361.41
2022-08-16T23:09:32.062Z,96344.56
2022-08-16T23:12:03.716Z,96351.97
2022-08-16T23:14:30.248Z,96350.59
2022-08-16T23:16:56.708Z,96353.56
2022-08-16T23:19:23.336Z,96341.94
2022-08-16T23:21:50.238Z,96349.66
2022-08-16T23:24:20.227Z,96348.91
2022-08-16T23:26:49.108Z,96340.34
2022-08-16T23:29:23.475Z,96343.59
2022-08-16T23:31:58.650Z,96356.06
2022-08-16T23:34:28.035Z,96350.47
2022-08-16T23:36:55.190Z,96346.78
2022-08-16T23:39:21.934Z,96342.56
2022-08-16T23:41:48.443Z,96336.75
2022-08-16T23:44:55.291Z,96342.06
2022-08-16T23:47:01.554Z,96345.78
2022-08-16T23:50:01.796Z,96350.59
2022-08-16T23:52:14.522Z,96351.72
2022-08-16T23:54:41.125Z,96345.94
2022-08-16T23:57:08.368Z,96336.88
2022-08-16T23:59:37.487Z,96335.91
